Time;durP1;ratioP1;P1;durP2;ratioP2;P2;SDS_P1;SDS_P2;PMS_P1;PMS_P2;Temp;Humidity;BMP_temperature;BMP_pressure;BME280_temperature;BME280_humidity;BME280_pressure;Samples;Min_cycle;Max_cycle;Signal;HPM_P1;HPM_P2
2022/09/07 00:00:15;;;;;;;8.98;5.57;;;20.50;93.60;;;;;;5073498;28;20047;-75
2022/09/07 00:02:41;;;;;;;9.55;6.28;;;20.50;93.40;;;;;;5091052;28;20056;-75
2022/09/07 00:05:07;;;;;;;12.07;5.75;;;20.50;93.70;;;;;;5073802;28;20020;-76
2022/09/07 00:07:33;;;;;;;12.23;6.07;;;20.40;94.00;;;;;;5091334;28;20051;-76
2022/09/07 00:09:59;;;;;;;9.35;5.70;;;20.40;93.80;;;;;;5091287;28;20028;-77
2022/09/07 00:12:25;;;;;;;7.57;5.90;;;20.40;94.10;;;;;;5091164;28;20028;-76
2022/09/07 00:14:50;;;;;;;14.50;6.10;;;20.40;94.10;;;;;;5091059;28;20113;-76
2022/09/07 00:17:16;;;;;;;11.40;5.47;;;20.40;94.20;;;;;;5091421;28;20081;-75
2022/09/07 00:19:42;;;;;;;15.05;5.95;;;20.40;94.00;;;;;;5091044;28;20461;-76
2022/09/07 00:22:08;;;;;;;12.98;6.10;;;20.40;94.20;;;;;;5090929;28;20136;-76
2022/09/07 00:24:33;;;;;;;9.45;6.13;;;20.40;94.30;;;;;;5090973;28;20032;-76
2022/09/07 00:26:59;;;;;;;16.25;6.38;;;20.40;94.30;;;;;;5091060;28;20028;-76
2022/09/07 00:29:28;;;;;;;14.02;6.60;;;20.30;94.60;;;;;;5091120;28;20089;-76
2022/09/07 00:31:53;;;;;;;9.57;5.95;;;20.30;94.60;;;;;;5091024;28;20024;-76
2022/09/07 00:34:19;;;;;;;9.27;5.75;;;20.40;94.40;;;;;;5090626;28;20054;-76
2022/09/07 00:36:45;;;;;;;12.32;6.20;;;20.30;94.60;;;;;;5090701;28;20036;-77
2022/09/07 00:39:10;;;;;;;12.45;6.20;;;20.40;94.70;;;;;;5090488;28;20086;-76
2022/09/07 00:41:36;;;;;;;12.02;5.95;;;20.30;94.80;;;;;;5090395;28;20028;-76
2022/09/07 00:44:58;;;;;;;11.68;6.63;;;20.30;94.80;;;;;;5073076;28;20035;-76
2022/09/07 00:47:48;;;;;;;11.07;6.10;;;20.20;95.10;;;;;;5090316;28;20514;-76
2022/09/07 00:50:26;;;;;;;11.15;6.18;;;20.10;95.40;;;;;;5091056;28;20125;-76
2022/09/07 00:52:53;;;;;;;;;;;20.20;95.50;;;;;;5091056;28;20118;-77
2022/09/07 00:55:20;;;;;;;8.25;5.95;;;20.00;95.60;;;;;;5090617;28;19991;-76
2022/09/07 00:57:51;;;;;;;11.57;7.30;;;20.00;95.80;;;;;;5090678;28;20036;-76
2022/09/07 01:00:16;;;;;;;11.52;6.95;;;20.10;95.80;;;;;;5090211;28;20053;-75
2022/09/07 01:02:43;;;;;;;10.00;7.03;;;20.10;95.70;;;;;;5090117;28;20041;-76
2022/09/07 01:05:32;;;;;;;9.90;7.38;;;20.10;95.80;;;;;;5090923;28;20020;-76
2022/09/07 01:07:58;;;;;;;9.57;6.72;;;20.10;95.70;;;;;;5090530;28;20040;-76
2022/09/07 01:10:26;;;;;;;13.80;7.05;;;20.00;95.80;;;;;;5090648;28;20035;-75
2022/09/07 01:12:52;;;;;;;11.93;6.55;;;20.10;95.80;;;;;;5090381;28;20070;-77
2022/09/07 01:15:22;;;;;;;11.95;7.72;;;20.10;95.90;;;;;;5090285;28;20032;-76
2022/09/07 01:17:59;;;;;;;13.60;6.47;;;20.10;95.90;;;;;;5072251;28;20198;-77
2022/09/07 01:20:28;;;;;;;10.73;7.13;;;20.10;95.90;;;;;;5090556;28;20516;-76
2022/09/07 01:23:32;;;;;;;10.65;7.32;;;20.10;96.10;;;;;;5090625;28;20035;-76
2022/09/07 01:26:13;;;;;;;10.10;6.80;;;20.10;96.10;;;;;;5038979;28;20039;-75
2022/09/07 01:28:39;;;;;;;13.32;7.68;;;20.10;96.10;;;;;;5090196;28;20462;-75
2022/09/07 01:31:27;;;;;;;10.10;6.93;;;20.10;96.10;;;;;;5090093;28;20107;-74
2022/09/07 01:34:01;;;;;;;14.65;7.90;;;20.10;96.20;;;;;;5072370;28;20039;-75
2022/09/07 01:36:40;;;;;;;12.02;7.38;;;20.00;96.20;;;;;;5089824;28;20405;-75
2022/09/07 01:39:07;;;;;;;10.43;7.35;;;20.00;96.40;;;;;;5090353;28;20032;-75
2022/09/07 01:41:41;;;;;;;12.77;7.40;;;20.00;96.60;;;;;;5090206;28;20016;-77
2022/09/07 01:44:13;;;;;;;15.88;7.88;;;20.00;96.50;;;;;;5091843;28;20402;-75
2022/09/07 01:46:51;;;;;;;13.77;7.70;;;20.00;96.40;;;;;;5094401;28;20024;-76
2022/09/07 01:49:23;;;;;;;;;;;19.90;96.80;;;;;;5094820;28;20038;-75
2022/09/07 01:51:54;;;;;;;10.60;7.88;;;19.90;96.70;;;;;;5076420;28;20463;-76
2022/09/07 01:54:21;;;;;;;20.02;8.05;;;19.90;96.50;;;;;;5094388;28;20032;-76
2022/09/07 01:56:53;;;;;;;10.35;7.72;;;19.90;96.60;;;;;;5076051;28;20032;-76
2022/09/07 01:59:22;;;;;;;12.80;7.80;;;19.90;96.80;;;;;;5094865;28;20358;-76
2022/09/07 02:01:53;;;;;;;11.35;7.93;;;19.80;96.90;;;;;;5094186;28;20105;-75
2022/09/07 02:04:34;;;;;;;11.50;7.82;;;19.90;96.90;;;;;;5093834;28;20062;-75
2022/09/07 02:07:46;;;;;;;13.85;8.50;;;20.00;96.90;;;;;;5075551;28;20316;-74
2022/09/07 02:10:14;;;;;;;11.15;7.43;;;19.90;96.70;;;;;;5089282;28;20119;-75
2022/09/07 02:13:07;;;;;;;9.45;7.95;;;19.90;96.70;;;;;;5093417;28;20033;-76
2022/09/07 02:15:51;;;;;;;13.55;7.97;;;19.80;97.10;;;;;;5093709;28;20028;-77
2022/09/07 02:18:20;;;;;;;11.32;8.93;;;19.80;97.20;;;;;;5093848;28;20028;-77
2022/09/07 02:20:50;;;;;;;13.27;8.48;;;19.80;97.20;;;;;;5093639;28;20115;-77
2022/09/07 02:23:28;;;;;;;11.60;8.02;;;19.70;97.80;;;;;;5093856;28;20456;-76
2022/09/07 02:26:17;;;;;;;15.18;8.25;;;19.70;97.20;;;;;;5093580;28;20032;-77
2022/09/07 02:28:43;;;;;;;18.98;8.73;;;19.70;97.40;;;;;;5093411;28;20107;-79
2022/09/07 02:31:09;;;;;;;15.18;8.68;;;19.70;97.30;;;;;;5093271;28;20116;-77
2022/09/07 02:33:34;;;;;;;12.85;8.38;;;19.70;97.30;;;;;;5075047;28;20361;-76
2022/09/07 02:36:03;;;;;;;14.10;9.23;;;19.70;97.40;;;;;;5092973;28;20040;-76
2022/09/07 02:38:30;;;;;;;15.75;8.80;;;19.70;97.20;;;;;;5093183;28;20028;-75
2022/09/07 02:40:58;;;;;;;12.85;8.85;;;19.60;97.70;;;;;;5075621;28;20020;-76
2022/09/07 02:43:25;;;;;;;12.73;9.23;;;19.60;97.50;;;;;;5093097;28;20032;-76
2022/09/07 02:46:19;;;;;;;12.63;9.20;;;19.70;97.50;;;;;;5092970;28;20051;-75
2022/09/07 02:49:02;;;;;;;12.60;8.95;;;19.70;97.50;;;;;;5093338;28;20042;-75
2022/09/07 02:51:37;;;;;;;12.77;8.95;;;19.60;97.80;;;;;;5074999;28;20030;-76
2022/09/07 02:54:15;;;;;;;12.18;8.85;;;19.60;97.90;;;;;;5092966;28;20048;-76
2022/09/07 02:56:53;;;;;;;12.50;8.52;;;19.60;97.80;;;;;;5092989;28;20027;-75
2022/09/07 02:59:28;;;;;;;12.40;9.30;;;19.60;97.90;;;;;;5093377;28;20466;-76
2022/09/07 03:02:06;;;;;;;14.82;9.48;;;19.60;97.80;;;;;;5092664;28;20055;-77
2022/09/07 03:05:18;;;;;;;14.68;10.10;;;19.70;97.80;;;;;;5092619;28;20027;-77
2022/09/07 03:08:01;;;;;;;19.55;10.15;;;19.60;98.00;;;;;;5085500;28;20036;-77
2022/09/07 03:10:27;;;;;;;13.25;9.38;;;19.60;98.10;;;;;;5074827;28;20032;-77
2022/09/07 03:12:53;;;;;;;17.08;9.40;;;19.50;98.20;;;;;;5092847;28;20094;-77
2022/09/07 03:15:22;;;;;;;13.05;9.60;;;19.60;98.10;;;;;;5092534;28;20024;-76
2022/09/07 03:17:48;;;;;;;22.27;10.30;;;19.60;97.90;;;;;;5092254;28;20441;-76
2022/09/07 03:20:18;;;;;;;14.75;10.25;;;19.50;98.30;;;;;;5074975;28;20128;-77
2022/09/07 03:22:48;;;;;;;22.58;10.38;;;19.50;98.50;;;;;;5092154;28;20024;-79
2022/09/07 03:25:15;;;;;;;15.00;9.82;;;19.50;98.20;;;;;;5092281;28;20028;-77
2022/09/07 03:27:41;;;;;;;13.23;9.02;;;19.60;98.20;;;;;;5073922;28;20059;-77
2022/09/07 03:30:08;;;;;;;14.95;10.88;;;19.60;98.00;;;;;;5091902;28;20048;-75
2022/09/07 03:32:35;;;;;;;16.90;11.20;;;19.60;98.20;;;;;;5073501;28;20084;-75
2022/09/07 03:35:02;;;;;;;17.83;10.47;;;19.60;98.00;;;;;;5074276;28;20039;-75
2022/09/07 03:37:28;;;;;;;14.93;9.82;;;19.70;97.60;;;;;;5091811;28;20253;-75
2022/09/07 03:39:54;;;;;;;13.80;9.63;;;19.70;97.50;;;;;;5091576;28;20127;-75
2022/09/07 03:42:20;;;;;;;15.32;9.43;;;19.70;97.60;;;;;;5091343;28;20122;-76
2022/09/07 03:44:47;;;;;;;11.57;9.23;;;19.70;97.60;;;;;;5091582;28;20047;-76
2022/09/07 03:47:13;;;;;;;17.42;9.60;;;19.70;97.30;;;;;;5092179;28;20020;-76
2022/09/07 03:49:38;;;;;;;13.07;8.82;;;19.70;97.60;;;;;;5091764;28;20210;-75
2022/09/07 03:52:04;;;;;;;12.25;8.30;;;19.70;97.60;;;;;;5091389;28;20067;-75
2022/09/07 03:54:30;;;;;;;15.07;10.27;;;19.70;97.60;;;;;;5091656;28;20032;-75
2022/09/07 03:56:55;;;;;;;11.85;8.65;;;19.70;97.70;;;;;;5091408;28;20024;-76
2022/09/07 03:59:21;;;;;;;20.77;8.98;;;19.70;97.60;;;;;;5091435;28;20024;-75
2022/09/07 04:01:47;;;;;;;13.18;8.25;;;19.70;97.60;;;;;;5091588;28;20115;-76
2022/09/07 04:04:13;;;;;;;12.05;8.63;;;19.70;97.80;;;;;;5091321;28;20024;-76
2022/09/07 04:06:38;;;;;;;14.70;8.55;;;19.70;97.80;;;;;;5072612;28;20120;-75
2022/09/07 04:09:07;;;;;;;16.60;8.57;;;19.70;97.60;;;;;;5091019;28;20028;-77
2022/09/07 04:11:33;;;;;;;10.43;7.47;;;19.70;97.70;;;;;;5091031;28;20028;-75
2022/09/07 04:13:59;;;;;;;13.13;9.25;;;19.70;98.00;;;;;;5091501;28;20024;-76
2022/09/07 04:16:26;;;;;;;14.57;8.30;;;19.70;98.10;;;;;;5073305;28;20487;-77
2022/09/07 04:18:57;;;;;;;14.07;9.25;;;19.70;97.80;;;;;;5091252;28;20461;-76
2022/09/07 04:21:24;;;;;;;11.15;8.98;;;19.70;98.20;;;;;;5072878;28;20032;-76
2022/09/07 04:23:51;;;;;;;13.80;9.57;;;19.70;98.50;;;;;;5073144;28;20032;-77
2022/09/07 04:26:19;;;;;;;15.05;9.20;;;19.70;98.40;;;;;;5091355;28;20020;-75
2022/09/07 04:28:46;;;;;;;14.35;9.68;;;19.70;98.70;;;;;;5072700;28;20047;-76
2022/09/07 04:31:14;;;;;;;14.07;9.73;;;19.80;99.20;;;;;;5072877;28;20404;-76
2022/09/07 04:33:41;;;;;;;13.13;9.18;;;19.80;99.30;;;;;;5090692;28;20031;-77
2022/09/07 04:36:07;;;;;;;17.23;8.75;;;19.80;99.30;;;;;;5091137;28;20039;-77
2022/09/07 04:38:34;;;;;;;14.55;8.43;;;19.90;99.50;;;;;;5073409;28;20350;-77
2022/09/07 04:41:11;;;;;;;14.48;9.48;;;19.90;99.80;;;;;;5073312;28;20246;-77
2022/09/07 04:43:38;;;;;;;;;;;19.90;99.90;;;;;;5091009;28;20035;-77
2022/09/07 04:46:16;;;;;;;14.50;9.45;;;19.90;99.90;;;;;;5090721;28;19908;-77
2022/09/07 04:48:41;;;;;;;14.73;10.05;;;19.90;99.90;;;;;;5090624;28;20044;-75
2022/09/07 04:51:09;;;;;;;15.65;10.00;;;19.90;99.90;;;;;;5072706;28;20425;-75
2022/09/07 04:53:36;;;;;;;13.25;8.95;;;19.80;99.90;;;;;;5090436;28;20272;-77
2022/09/07 04:56:05;;;;;;;16.58;9.07;;;19.80;99.90;;;;;;5090979;28;20035;-76
2022/09/07 04:58:31;;;;;;;13.30;9.60;;;19.70;99.90;;;;;;5090532;28;20035;-76
2022/09/07 05:01:17;;;;;;;12.60;9.93;;;19.70;99.90;;;;;;5090133;28;20040;-76
2022/09/07 05:03:43;;;;;;;14.18;10.48;;;19.70;99.90;;;;;;5090427;28;20161;-76
2022/09/07 05:06:10;;;;;;;13.60;10.00;;;19.70;99.90;;;;;;5090272;28;20024;-75
2022/09/07 05:08:40;;;;;;;17.55;10.68;;;19.70;99.90;;;;;;5090311;28;20051;-75
2022/09/07 05:11:06;;;;;;;16.33;10.40;;;19.70;99.90;;;;;;5090921;28;20082;-76
2022/09/07 05:13:33;;;;;;;20.05;10.63;;;19.70;99.90;;;;;;5090311;28;20093;-75
2022/09/07 05:15:59;;;;;;;15.13;10.07;;;19.80;99.90;;;;;;5090192;28;20378;-75
2022/09/07 05:18:25;;;;;;;18.60;10.48;;;19.80;99.90;;;;;;5092114;28;20036;-76
2022/09/07 05:20:51;;;;;;;13.38;10.35;;;19.80;99.90;;;;;;5076443;28;20032;-75
2022/09/07 05:23:16;;;;;;;17.17;10.48;;;19.80;99.90;;;;;;5094970;28;20035;-77
2022/09/07 05:25:44;;;;;;;15.23;10.18;;;19.80;99.90;;;;;;5094572;28;20355;-78
2022/09/07 05:28:10;;;;;;;17.37;10.87;;;19.90;99.90;;;;;;5094645;28;20404;-76
2022/09/07 05:30:37;;;;;;;13.73;10.70;;;19.90;99.90;;;;;;5076401;28;20154;-77
2022/09/07 05:33:02;;;;;;;15.38;10.65;;;19.90;99.90;;;;;;5094482;28;20047;-76
2022/09/07 05:35:28;;;;;;;24.48;15.80;;;19.90;99.90;;;;;;5094565;28;20100;-76
2022/09/07 05:37:54;;;;;;;36.13;21.77;;;19.90;99.90;;;;;;5077035;28;20028;-76
2022/09/07 05:40:21;;;;;;;39.35;26.73;;;19.90;99.90;;;;;;5094168;28;20114;-76
2022/09/07 05:42:47;;;;;;;23.33;13.00;;;19.90;99.90;;;;;;5094380;28;20036;-75
2022/09/07 05:45:13;;;;;;;21.40;13.88;;;19.90;99.90;;;;;;5076163;28;20111;-75
2022/09/07 05:47:39;;;;;;;18.48;12.55;;;20.00;99.90;;;;;;5075826;28;20039;-75
2022/09/07 05:50:06;;;;;;;22.95;13.32;;;20.00;99.90;;;;;;5076213;28;20439;-76
2022/09/07 05:52:32;;;;;;;21.05;14.07;;;20.00;99.90;;;;;;5094050;28;20021;-78
2022/09/07 05:54:58;;;;;;;19.02;13.93;;;20.00;99.90;;;;;;5075794;28;20028;-81
2022/09/07 05:57:24;;;;;;;21.02;14.32;;;19.90;99.90;;;;;;5093920;28;20054;-75
2022/09/07 05:59:49;;;;;;;15.63;12.55;;;19.90;99.90;;;;;;5094131;28;20025;-77
2022/09/07 06:02:15;;;;;;;16.27;12.95;;;20.00;99.90;;;;;;5094333;28;20055;-78
2022/09/07 06:04:41;;;;;;;22.60;11.85;;;20.00;99.90;;;;;;5083885;28;20083;-80
2022/09/07 06:07:11;;;;;;;21.17;14.10;;;20.00;99.90;;;;;;5074540;28;20039;-80
2022/09/07 06:09:37;;;;;;;17.85;13.40;;;20.00;99.90;;;;;;5055907;28;20486;-78
2022/09/07 06:12:04;;;;;;;19.13;12.88;;;20.00;99.90;;;;;;5073965;28;20035;-76
2022/09/07 06:14:30;;;;;;;18.98;12.82;;;19.90;99.90;;;;;;5074483;28;20046;-78
2022/09/07 06:16:56;;;;;;;24.90;14.82;;;19.90;99.90;;;;;;5074139;28;20024;-79
2022/09/07 06:19:22;;;;;;;22.92;14.32;;;19.90;99.90;;;;;;5073652;28;20036;-81
2022/09/07 06:21:48;;;;;;;19.15;12.88;;;19.90;99.90;;;;;;5073555;28;20036;-81
2022/09/07 06:24:14;;;;;;;18.55;13.10;;;19.90;99.90;;;;;;5074193;28;20285;-80
2022/09/07 06:26:39;;;;;;;17.27;12.02;;;19.90;99.90;;;;;;5073362;28;20032;-77
2022/09/07 06:29:05;;;;;;;16.27;11.80;;;19.90;99.90;;;;;;5073679;28;20046;-78
2022/09/07 06:31:31;;;;;;;17.75;11.80;;;20.00;99.90;;;;;;5074256;28;20063;-81
2022/09/07 06:33:57;;;;;;;17.33;13.23;;;20.00;99.90;;;;;;5073241;28;20025;-80
2022/09/07 06:36:26;;;;;;;22.67;14.70;;;20.00;99.90;;;;;;5074253;28;20051;-84
2022/09/07 06:38:54;;;;;;;21.95;14.07;;;20.00;99.90;;;;;;5075362;28;20316;-84
2022/09/07 06:41:27;;;;;;;23.80;13.48;;;19.90;99.90;;;;;;5075570;28;20404;-85
2022/09/07 06:43:53;;;;;;;22.13;13.95;;;20.00;99.90;;;;;;5064985;28;20079;-81
2022/09/07 06:46:20;;;;;;;21.70;13.15;;;20.00;99.90;;;;;;5094647;28;20058;-81
2022/09/07 06:48:45;;;;;;;20.55;13.73;;;20.00;99.90;;;;;;5094166;28;20032;-83
2022/09/07 06:51:15;;;;;;;20.98;13.32;;;20.00;99.90;;;;;;5095818;28;20040;-95
2022/09/07 06:53:41;;;;;;;17.73;13.18;;;20.00;99.90;;;;;;5079929;28;20032;-86
2022/09/07 06:56:09;;;;;;;24.60;14.30;;;20.00;99.90;;;;;;5094419;28;20434;-77
2022/09/07 06:58:35;;;;;;;21.95;15.73;;;19.90;99.90;;;;;;5094466;28;20489;-80
2022/09/07 07:01:11;;;;;;;18.10;12.98;;;19.90;99.90;;;;;;5093617;28;20541;-81
2022/09/07 07:03:37;;;;;;;16.45;12.48;;;19.90;99.90;;;;;;5093284;28;20161;-79
2022/09/07 07:06:06;;;;;;;19.58;14.55;;;20.00;99.90;;;;;;5092872;28;20119;-77
2022/09/07 07:08:32;;;;;;;17.30;13.73;;;20.00;99.90;;;;;;5092892;28;20032;-79
2022/09/07 07:11:11;;;;;;;20.98;12.52;;;20.00;99.90;;;;;;5075539;28;20173;-80
2022/09/07 07:13:39;;;;;;;17.10;12.23;;;20.00;99.90;;;;;;5092735;28;20039;-85
2022/09/07 07:16:08;;;;;;;20.75;12.50;;;20.10;99.90;;;;;;5093105;28;20181;-82
2022/09/07 07:18:34;;;;;;;18.83;12.90;;;20.00;99.90;;;;;;5093105;28;20127;-78
2022/09/07 07:21:05;;;;;;;23.10;13.45;;;20.10;99.90;;;;;;5074832;28;20028;-78
2022/09/07 07:23:31;;;;;;;15.48;12.57;;;20.20;99.90;;;;;;5092986;28;20083;-81
2022/09/07 07:26:26;;;;;;;16.85;12.02;;;20.20;99.90;;;;;;5093010;28;20103;-81
2022/09/07 07:28:53;;;;;;;14.52;11.90;;;20.30;99.90;;;;;;5053866;28;20077;-77
2022/09/07 07:31:21;;;;;;;20.58;13.70;;;20.30;99.90;;;;;;5092840;28;20462;-78
2022/09/07 07:33:47;;;;;;;;;;;20.30;99.90;;;;;;5074868;28;20036;-79
2022/09/07 07:36:17;;;;;;;24.25;14.93;;;20.30;99.90;;;;;;5092819;28;19919;-79
2022/09/07 07:38:46;;;;;;;15.93;12.38;;;20.40;99.90;;;;;;5092118;28;20024;-83
2022/09/07 07:41:12;;;;;;;19.30;12.50;;;20.40;99.90;;;;;;5092077;28;20450;-78
2022/09/07 07:43:38;;;;;;;17.55;11.18;;;20.50;99.90;;;;;;5091620;28;20062;-76
2022/09/07 07:46:05;;;;;;;17.35;10.52;;;20.60;99.90;;;;;;5091738;28;20207;-76
2022/09/07 07:48:32;;;;;;;15.52;10.75;;;20.60;99.90;;;;;;5091779;28;20055;-80
2022/09/07 07:51:06;;;;;;;17.73;11.43;;;20.70;99.90;;;;;;5092096;28;20100;-78
2022/09/07 07:53:34;;;;;;;15.63;9.95;;;20.70;99.90;;;;;;5091738;28;20447;-78
2022/09/07 07:56:00;;;;;;;;;;;20.80;99.90;;;;;;5096143;28;20020;-81
2022/09/07 07:58:27;;;;;;;15.73;11.20;;;20.80;99.90;;;;;;5092678;28;19912;-78
2022/09/07 08:01:10;;;;;;;14.60;10.15;;;20.80;99.90;;;;;;5091839;28;20112;-80
2022/09/07 08:03:38;;;;;;;19.50;10.43;;;20.90;99.90;;;;;;5092553;28;20502;-83
2022/09/07 08:06:16;;;;;;;14.70;9.13;;;20.80;99.90;;;;;;5091853;28;20032;-78
2022/09/07 08:08:42;;;;;;;17.52;10.55;;;21.00;99.90;;;;;;5091375;28;20389;-79
2022/09/07 08:11:19;;;;;;;13.55;10.23;;;21.00;99.90;;;;;;5092232;28;20020;-79
2022/09/07 08:13:48;;;;;;;17.10;10.43;;;21.20;99.90;;;;;;5091809;28;20039;-81
2022/09/07 08:16:15;;;;;;;16.67;11.00;;;21.20;99.90;;;;;;5092248;28;20358;-81
2022/09/07 08:18:41;;;;;;;16.23;10.52;;;21.30;99.90;;;;;;5092531;28;20043;-82
2022/09/07 08:21:10;;;;;;;13.30;9.60;;;21.30;99.90;;;;;;5073365;28;20040;-77
2022/09/07 08:23:36;;;;;;;16.33;10.75;;;21.70;99.90;;;;;;5073594;28;20032;-80
2022/09/07 08:26:05;;;;;;;15.00;10.65;;;22.10;99.90;;;;;;5091611;28;20085;-80
2022/09/07 08:28:34;;;;;;;15.15;9.15;;;22.60;99.20;;;;;;5091497;28;20032;-77
2022/09/07 08:31:09;;;;;;;10.88;8.63;;;22.80;99.20;;;;;;5092086;28;20040;-79
2022/09/07 08:33:38;;;;;;;10.73;8.80;;;23.50;98.40;;;;;;5091258;28;20032;-77
2022/09/07 08:36:11;;;;;;;16.95;8.93;;;23.90;97.30;;;;;;5091071;28;20028;-78
2022/09/07 08:38:37;;;;;;;12.93;8.00;;;24.10;97.00;;;;;;5091209;28;20094;-77
2022/09/07 08:41:40;;;;;;;14.05;8.82;;;24.60;96.80;;;;;;5091447;28;20035;-82
2022/09/07 08:44:23;;;;;;;10.10;8.35;;;24.70;96.60;;;;;;5092581;28;20048;-79
2022/09/07 08:47:20;;;;;;;9.82;7.28;;;25.10;96.10;;;;;;5092715;28;20114;-82
2022/09/07 08:50:03;;;;;;;9.48;7.18;;;26.00;95.50;;;;;;5092699;28;20647;-83
2022/09/07 08:52:44;;;;;;;8.15;7.15;;;26.60;93.70;;;;;;5091840;28;20119;-80
2022/09/07 08:55:29;;;;;;;16.75;7.95;;;26.40;92.90;;;;;;5091748;28;20213;-81
2022/09/07 08:58:26;;;;;;;11.00;6.47;;;27.20;92.90;;;;;;5091145;28;20051;-81
2022/09/07 09:00:52;;;;;;;11.23;6.68;;;28.00;93.10;;;;;;5072703;28;20343;-79
2022/09/07 09:03:24;;;;;;;17.10;7.00;;;28.30;91.60;;;;;;5069862;28;20724;-78
2022/09/07 09:05:56;;;;;;;7.88;6.82;;;28.40;90.80;;;;;;5070747;28;20082;-76
2022/09/07 09:08:36;;;;;;;14.23;6.78;;;28.50;90.00;;;;;;5070530;28;20029;-79
2022/09/07 09:11:10;;;;;;;10.40;6.60;;;29.00;87.50;;;;;;5071090;28;20324;-79
2022/09/07 09:13:57;;;;;;;9.82;6.72;;;29.40;89.40;;;;;;5070925;28;20430;-80
2022/09/07 09:16:53;;;;;;;10.05;6.47;;;30.00;83.70;;;;;;5070652;28;20043;-75
2022/09/07 09:19:19;;;;;;;9.15;6.20;;;30.90;83.20;;;;;;5070054;28;20408;-80
2022/09/07 09:21:45;;;;;;;7.70;5.90;;;31.10;83.40;;;;;;5070496;28;20037;-79
2022/09/07 09:24:18;;;;;;;7.63;5.90;;;31.50;78.40;;;;;;5070557;28;20028;-76
2022/09/07 09:26:55;;;;;;;6.78;5.00;;;32.10;78.10;;;;;;5069894;28;20032;-78
2022/09/07 09:29:22;;;;;;;7.83;5.70;;;32.10;76.60;;;;;;5071236;28;20040;-77
2022/09/07 09:31:47;;;;;;;10.77;5.83;;;32.30;73.80;;;;;;5050266;28;20076;-74
2022/09/07 09:34:16;;;;;;;9.50;5.65;;;33.10;70.90;;;;;;5048741;28;20467;-74
2022/09/07 09:36:51;;;;;;;8.02;5.40;;;32.90;69.70;;;;;;5032458;28;20359;-77
2022/09/07 09:39:36;;;;;;;7.82;4.70;;;32.90;69.10;;;;;;5057881;28;20032;-75
2022/09/07 09:42:15;;;;;;;12.07;5.78;;;33.20;68.60;;;;;;5063965;28;20033;-75
2022/09/07 09:44:42;;;;;;;9.73;5.70;;;33.30;65.30;;;;;;5049744;28;20053;-79
2022/09/07 09:47:27;;;;;;;6.22;4.20;;;34.10;70.20;;;;;;5051702;28;20028;-81
2022/09/07 09:49:54;;;;;;;9.00;5.38;;;34.40;64.20;;;;;;5035331;28;20045;-80
2022/09/07 09:52:22;;;;;;;9.70;4.95;;;34.00;66.10;;;;;;5036688;28;20033;-81
2022/09/07 09:54:51;;;;;;;8.75;4.88;;;33.40;65.30;;;;;;5051492;28;20039;-79
2022/09/07 09:57:49;;;;;;;8.82;4.95;;;33.40;63.60;;;;;;5050035;28;20033;-78
2022/09/07 10:00:17;;;;;;;6.47;5.47;;;33.80;65.90;;;;;;5032374;28;20443;-80
2022/09/07 10:03:02;;;;;;;12.65;6.00;;;33.80;66.90;;;;;;5050357;28;20048;-79
2022/09/07 10:05:29;;;;;;;5.80;4.95;;;33.30;63.40;;;;;;5052179;28;20064;-80
2022/09/07 10:07:55;;;;;;;6.63;5.13;;;32.90;65.70;;;;;;5055733;28;20017;-79
2022/09/07 10:10:21;;;;;;;8.13;4.97;;;33.00;65.40;;;;;;5071872;28;20113;-77
2022/09/07 10:12:50;;;;;;;5.88;4.78;;;32.60;65.60;;;;;;5061566;28;20040;-77
2022/09/07 10:15:26;;;;;;;6.10;4.97;;;31.90;65.80;;;;;;5054633;28;20052;-77
2022/09/07 10:17:52;;;;;;;8.02;4.88;;;30.90;67.30;;;;;;5055163;28;20079;-79
2022/09/07 10:20:18;;;;;;;7.10;4.03;;;31.10;68.70;;;;;;5054806;28;20469;-77
2022/09/07 10:22:50;;;;;;;7.00;5.30;;;31.10;69.30;;;;;;5055110;28;20029;-81
2022/09/07 10:25:27;;;;;;;21.35;7.13;;;32.00;68.00;;;;;;5054954;28;20141;-78
2022/09/07 10:28:20;;;;;;;11.85;6.05;;;32.10;65.80;;;;;;5054241;28;20037;-78
2022/09/07 10:31:05;;;;;;;16.77;6.20;;;32.50;66.40;;;;;;5068233;28;20044;-82
2022/09/07 10:33:58;;;;;;;8.93;4.78;;;32.90;65.30;;;;;;5046022;28;20029;-76
2022/09/07 10:36:54;;;;;;;7.45;4.40;;;32.00;64.90;;;;;;5055347;28;20086;-74
2022/09/07 10:39:33;;;;;;;6.22;4.82;;;31.10;66.50;;;;;;5037384;28;20029;-75
2022/09/07 10:42:08;;;;;;;8.98;6.85;;;30.80;68.20;;;;;;5053146;28;20037;-81
2022/09/07 10:44:36;;;;;;;6.93;4.45;;;30.70;69.20;;;;;;5053077;28;20218;-79
2022/09/07 10:47:17;;;;;;;9.02;4.72;;;30.60;69.70;;;;;;5053664;28;20018;-81
2022/09/07 10:50:07;;;;;;;12.15;5.10;;;31.20;69.30;;;;;;5053638;28;20041;-78
2022/09/07 10:53:05;;;;;;;10.95;4.82;;;31.80;69.00;;;;;;5054975;28;20067;-80
2022/09/07 10:55:38;;;;;;;8.68;4.63;;;32.60;66.90;;;;;;5052879;28;20060;-77
2022/09/07 10:58:13;;;;;;;4.80;3.03;;;32.70;65.80;;;;;;5034741;28;20041;-76
2022/09/07 11:00:54;;;;;;;3.63;2.80;;;32.40;64.30;;;;;;5068357;28;20432;-76
2022/09/07 11:03:27;;;;;;;6.22;3.78;;;32.70;64.80;;;;;;5052968;28;20379;-77
2022/09/07 11:06:10;;;;;;;9.73;3.58;;;32.40;64.60;;;;;;5058094;28;20094;-76
2022/09/07 11:09:05;;;;;;;4.97;3.83;;;32.90;62.50;;;;;;5060918;28;20055;-78
2022/09/07 11:11:39;;;;;;;8.15;3.70;;;32.90;63.00;;;;;;5057178;28;20104;-74
2022/09/07 11:14:12;;;;;;;7.53;3.13;;;32.60;63.60;;;;;;5056649;28;20025;-77
2022/09/07 11:16:52;;;;;;;6.60;3.13;;;32.80;63.40;;;;;;5055010;28;20119;-76
2022/09/07 11:19:34;;;;;;;5.40;3.00;;;32.60;62.10;;;;;;5068129;28;20033;-78
2022/09/07 11:22:21;;;;;;;3.72;2.35;;;31.70;62.60;;;;;;5055321;28;20073;-76
2022/09/07 11:25:13;;;;;;;4.65;2.67;;;30.80;64.40;;;;;;5064176;28;20040;-76
2022/09/07 11:27:57;;;;;;;7.20;3.40;;;30.20;64.60;;;;;;5064359;28;20085;-75
2022/09/07 11:30:36;;;;;;;3.90;2.55;;;29.70;66.20;;;;;;5060558;28;20029;-75
2022/09/07 11:33:20;;;;;;;4.40;2.70;;;29.40;67.40;;;;;;5058771;28;20340;-75
2022/09/07 11:36:04;;;;;;;5.32;2.80;;;29.20;67.70;;;;;;5062321;28;20032;-75
2022/09/07 11:38:47;;;;;;;5.38;2.97;;;28.80;68.80;;;;;;5052059;28;20430;-76
2022/09/07 11:41:44;;;;;;;5.30;3.17;;;28.80;70.10;;;;;;5052249;28;20029;-76
2022/09/07 11:44:24;;;;;;;4.80;2.90;;;29.10;69.90;;;;;;5051358;28;20074;-77
2022/09/07 11:46:54;;;;;;;7.57;3.40;;;28.90;70.60;;;;;;5050981;28;20483;-76
2022/09/07 11:49:21;;;;;;;5.88;3.38;;;29.10;70.70;;;;;;5053677;28;20056;-75
2022/09/07 11:51:56;;;;;;;10.18;6.10;;;29.10;70.30;;;;;;5064110;28;20545;-76
2022/09/07 11:54:50;;;;;;;8.93;4.10;;;29.20;70.60;;;;;;5063971;28;20087;-79
2022/09/07 11:57:38;;;;;;;5.57;3.15;;;29.20;70.20;;;;;;5061730;28;20037;-77
2022/09/07 12:00:09;;;;;;;5.32;2.85;;;29.00;70.50;;;;;;5066424;28;20471;-78
2022/09/07 12:02:47;;;;;;;15.02;3.40;;;29.10;70.50;;;;;;5053991;28;20110;-79
2022/09/07 12:05:31;;;;;;;4.43;2.25;;;29.10;70.50;;;;;;5073226;28;20024;-77
2022/09/07 12:08:24;;;;;;;3.55;2.33;;;29.10;70.30;;;;;;5054049;28;20367;-77
2022/09/07 12:11:06;;;;;;;3.92;2.65;;;29.20;70.40;;;;;;5050724;28;20044;-78
2022/09/07 12:13:38;;;;;;;7.55;2.60;;;29.10;70.30;;;;;;5051601;28;20044;-77
2022/09/07 12:16:15;;;;;;;3.20;2.38;;;28.90;70.00;;;;;;5034084;28;20052;-76
2022/09/07 12:19:11;;;;;;;3.42;2.60;;;28.80;70.10;;;;;;5063226;28;20069;-79
2022/09/07 12:21:52;;;;;;;13.32;3.03;;;28.60;70.60;;;;;;5053307;28;20085;-75
2022/09/07 12:24:41;;;;;;;5.25;2.42;;;28.70;71.20;;;;;;5063207;28;20044;-78
2022/09/07 12:27:20;;;;;;;5.00;2.30;;;28.80;71.00;;;;;;5036595;28;20062;-77
2022/09/07 12:29:47;;;;;;;4.10;2.67;;;28.50;71.10;;;;;;5055128;28;20116;-79
2022/09/07 12:32:47;;;;;;;3.55;1.73;;;28.60;71.30;;;;;;5053146;28;20033;-82
2022/09/07 12:35:25;;;;;;;5.85;2.00;;;28.50;71.10;;;;;;5051150;28;20072;-80
2022/09/07 12:37:53;;;;;;;3.35;2.20;;;28.60;71.30;;;;;;5052244;28;20037;-78
2022/09/07 12:40:32;;;;;;;4.65;1.60;;;28.80;70.80;;;;;;5050742;28;20043;-76
2022/09/07 12:43:13;;;;;;;2.22;1.40;;;28.70;70.40;;;;;;5033058;28;20134;-77
2022/09/07 12:45:47;;;;;;;2.65;1.42;;;28.50;69.90;;;;;;5066613;28;20049;-78
2022/09/07 12:48:15;;;;;;;15.13;3.13;;;28.20;69.30;;;;;;5050723;28;20029;-77
2022/09/07 12:50:59;;;;;;;1.73;1.55;;;28.30;71.00;;;;;;5050756;28;20250;-78
2022/09/07 12:53:53;;;;;;;1.88;0.90;;;28.20;70.20;;;;;;5050925;28;20021;-78
2022/09/07 12:56:45;;;;;;;2.58;1.30;;;28.10;68.20;;;;;;5051086;28;20034;-76
2022/09/07 12:59:29;;;;;;;4.68;1.40;;;28.00;67.80;;;;;;5070861;28;20046;-77
2022/09/07 13:02:19;;;;;;;3.10;1.90;;;27.80;69.20;;;;;;5050555;28;20150;-76
2022/09/07 13:05:03;;;;;;;2.38;1.40;;;27.60;69.60;;;;;;5050415;28;20056;-79
2022/09/07 13:07:53;;;;;;;1.83;0.93;;;27.80;69.50;;;;;;5050523;28;20036;-76